createdAt,value
2019-03-26T00:00:08.291Z,99.90
2019-03-26T00:02:39.194Z,99.90
2019-03-26T00:05:08.466Z,99.90
2019-03-26T00:07:37.758Z,99.90
2019-03-26T00:10:07.096Z,99.90
2019-03-26T00:12:36.382Z,99.90
2019-03-26T00:15:06.380Z,99.90
2019-03-26T00:17:35.765Z,99.90
2019-03-26T00:20:06.372Z,99.90
2019-03-26T00:22:35.662Z,99.90
2019-03-26T00:25:06.890Z,99.90
2019-03-26T00:27:36.162Z,99.90
2019-03-26T00:30:05.985Z,99.90
2019-03-26T00:32:35.257Z,99.90
2019-03-26T00:35:04.782Z,99.90
2019-03-26T00:37:34.138Z,99.90
2019-03-26T00:40:04.106Z,99.90
2019-03-26T00:42:33.377Z,99.90
2019-03-26T00:45:02.746Z,99.90
2019-03-26T00:47:32.013Z,99.90
2019-03-26T00:50:01.356Z,99.90
2019-03-26T00:52:30.757Z,99.90
2019-03-26T00:55:00.054Z,99.90
2019-03-26T00:57:29.398Z,99.90
2019-03-26T00:59:58.706Z,99.90
2019-03-26T01:02:27.986Z,99.90
2019-03-26T01:04:57.385Z,99.90
2019-03-26T01:07:26.645Z,99.90
2019-03-26T01:09:55.918Z,99.90
2019-03-26T01:12:25.279Z,99.90
2019-03-26T01:14:54.555Z,99.90
2019-03-26T01:17:23.850Z,99.90
2019-03-26T01:19:53.126Z,99.90
2019-03-26T01:22:22.421Z,99.90
2019-03-26T01:24:51.694Z,99.90
2019-03-26T01:27:21.954Z,99.90
2019-03-26T01:29:51.230Z,99.90
2019-03-26T01:32:20.529Z,99.90
2019-03-26T01:34:49.806Z,99.90
2019-03-26T01:37:19.093Z,99.90
2019-03-26T01:39:48.379Z,99.90
2019-03-26T01:42:17.666Z,99.90
2019-03-26T01:44:46.943Z,99.90
2019-03-26T01:47:16.230Z,99.90
2019-03-26T01:49:45.506Z,99.90
2019-03-26T01:52:14.807Z,99.90
2019-03-26T01:54:44.087Z,99.90
2019-03-26T01:57:14.350Z,99.90
2019-03-26T01:59:43.690Z,99.90
2019-03-26T02:02:12.980Z,99.90
2019-03-26T02:04:42.287Z,99.90
2019-03-26T02:07:11.626Z,99.90
2019-03-26T02:09:40.898Z,99.90
2019-03-26T02:12:10.175Z,99.90
2019-03-26T02:14:39.554Z,99.90
2019-03-26T02:17:08.815Z,99.90
2019-03-26T02:19:38.206Z,99.90
2019-03-26T02:22:07.534Z,99.90
2019-03-26T02:24:36.823Z,99.90
2019-03-26T02:27:06.105Z,99.90
2019-03-26T02:29:35.400Z,99.90
2019-03-26T02:32:04.740Z,99.90
2019-03-26T02:34:34.298Z,99.90
2019-03-26T02:37:03.583Z,99.90
2019-03-26T02:39:32.874Z,99.90
2019-03-26T02:42:02.151Z,99.90
2019-03-26T02:44:31.435Z,99.90
2019-03-26T02:47:00.717Z,99.90
2019-03-26T02:49:30.015Z,99.90
2019-03-26T02:52:08.892Z,99.90
2019-03-26T02:54:38.192Z,99.90
2019-03-26T02:57:07.559Z,99.90
2019-03-26T02:59:36.826Z,99.90
2019-03-26T03:02:06.127Z,99.90
2019-03-26T03:04:35.405Z,99.90
2019-03-26T03:07:04.704Z,99.90
2019-03-26T03:09:33.979Z,99.90
2019-03-26T03:12:03.275Z,99.90
2019-03-26T03:14:32.554Z,99.90
2019-03-26T03:17:01.847Z,99.90
2019-03-26T03:19:31.116Z,99.90
2019-03-26T03:24:35.586Z,99.90
2019-03-26T03:27:04.869Z,99.90
2019-03-26T03:29:34.159Z,99.90
2019-03-26T03:32:03.442Z,99.90
2019-03-26T03:34:32.816Z,99.90
2019-03-26T03:37:02.088Z,99.90
2019-03-26T03:39:31.395Z,99.90
2019-03-26T03:42:00.835Z,99.90
2019-03-26T03:44:31.107Z,99.90
2019-03-26T03:47:01.728Z,99.90
2019-03-26T03:49:31.193Z,99.90
2019-03-26T03:52:03.279Z,99.90
2019-03-26T03:54:34.078Z,99.90
2019-03-26T03:59:40.891Z,99.90
2019-03-26T04:02:10.192Z,99.90
2019-03-26T04:04:39.463Z,99.90
2019-03-26T04:07:08.758Z,99.90
2019-03-26T04:09:38.035Z,99.90
2019-03-26T04:12:07.322Z,99.90
2019-03-26T04:14:36.609Z,99.90
2019-03-26T04:17:05.897Z,99.90
2019-03-26T04:19:35.172Z,99.90
2019-03-26T04:22:04.467Z,99.90
2019-03-26T04:24:33.741Z,99.90
2019-03-26T04:27:04.111Z,99.90
2019-03-26T04:29:33.512Z,99.90
2019-03-26T04:32:02.850Z,99.90
2019-03-26T04:34:32.106Z,99.90
2019-03-26T04:37:01.435Z,99.90
2019-03-26T04:39:30.779Z,99.90
2019-03-26T04:42:00.141Z,99.90
2019-03-26T04:44:29.407Z,99.90
2019-03-26T04:46:58.755Z,99.90
2019-03-26T04:49:28.068Z,99.90
2019-03-26T04:51:57.461Z,99.90
2019-03-26T04:54:26.735Z,99.90
2019-03-26T04:56:56.057Z,99.90
2019-03-26T04:59:25.374Z,99.90
2019-03-26T05:01:54.691Z,99.90
2019-03-26T05:04:23.964Z,99.90
2019-03-26T05:06:53.295Z,99.90
2019-03-26T05:09:22.579Z,99.90
2019-03-26T05:11:51.882Z,99.90
2019-03-26T05:14:21.164Z,99.90
2019-03-26T05:16:50.503Z,99.90
2019-03-26T05:19:19.765Z,99.90
2019-03-26T05:21:49.116Z,99.90
2019-03-26T05:24:18.399Z,99.90
2019-03-26T05:26:47.689Z,99.90
2019-03-26T05:29:16.971Z,99.90
2019-03-26T05:31:46.272Z,99.90
2019-03-26T05:34:16.511Z,99.90
2019-03-26T05:36:51.217Z,99.90
2019-03-26T05:39:17.014Z,99.90
2019-03-26T05:41:46.323Z,99.90
2019-03-26T05:44:15.593Z,99.90
2019-03-26T05:46:44.887Z,99.90
2019-03-26T05:49:14.166Z,99.90
2019-03-26T05:51:43.468Z,99.90
2019-03-26T05:54:12.749Z,99.90
2019-03-26T05:56:42.045Z,99.90
2019-03-26T05:59:11.311Z,99.90
2019-03-26T06:01:40.608Z,99.90
2019-03-26T06:04:09.904Z,99.90
2019-03-26T06:06:39.193Z,99.90
2019-03-26T06:09:08.464Z,99.90
2019-03-26T06:11:37.763Z,99.90
2019-03-26T06:14:07.045Z,99.90
2019-03-26T06:16:38.599Z,99.90
2019-03-26T06:19:07.322Z,99.90
2019-03-26T06:21:36.634Z,99.90
2019-03-26T06:24:05.922Z,99.90
2019-03-26T06:26:35.222Z,99.90
2019-03-26T06:29:04.502Z,99.90
2019-03-26T06:31:33.808Z,99.90
2019-03-26T06:34:03.087Z,99.90
2019-03-26T06:36:32.381Z,99.90
2019-03-26T06:39:02.642Z,99.90
2019-03-26T06:41:31.939Z,99.90
2019-03-26T06:44:01.222Z,99.90
2019-03-26T06:46:30.523Z,99.90
2019-03-26T06:48:59.813Z,99.90
2019-03-26T06:51:29.113Z,99.90
2019-03-26T06:53:58.386Z,99.90
2019-03-26T06:56:27.694Z,99.90
2019-03-26T06:58:56.975Z,99.90
2019-03-26T07:01:26.274Z,99.90
2019-03-26T07:03:55.900Z,99.90
2019-03-26T07:06:25.210Z,99.90
2019-03-26T07:08:54.490Z,99.90
2019-03-26T07:11:23.791Z,99.90
2019-03-26T07:13:53.070Z,99.90
2019-03-26T07:16:22.375Z,99.90
2019-03-26T07:18:51.646Z,99.90
2019-03-26T07:21:21.824Z,99.90
2019-03-26T07:23:51.163Z,99.90
2019-03-26T07:26:20.511Z,99.90
2019-03-26T07:28:49.778Z,99.90
2019-03-26T07:31:19.087Z,99.90
2019-03-26T07:33:48.373Z,99.90
2019-03-26T07:36:17.675Z,99.90
2019-03-26T07:38:46.954Z,99.90
2019-03-26T07:41:16.310Z,99.90
2019-03-26T07:43:45.612Z,99.90
2019-03-26T07:46:14.921Z,99.90
2019-03-26T07:48:44.194Z,99.90
2019-03-26T07:51:13.506Z,99.90
2019-03-26T07:53:42.786Z,99.90
2019-03-26T07:56:12.090Z,99.90
2019-03-26T07:58:41.371Z,99.90
2019-03-26T08:01:10.710Z,99.90
2019-03-26T08:03:39.995Z,99.90
2019-03-26T08:06:10.266Z,99.90
2019-03-26T08:08:40.814Z,94.40
2019-03-26T08:11:10.214Z,95.40
2019-03-26T08:13:41.023Z,87.20
2019-03-26T08:16:10.516Z,81.00
2019-03-26T08:18:39.798Z,77.20
2019-03-26T08:21:09.102Z,68.50
2019-03-26T08:23:38.624Z,69.30
2019-03-26T08:26:08.030Z,67.10
2019-03-26T08:28:37.321Z,65.00
2019-03-26T08:31:06.615Z,66.50
2019-03-26T08:33:35.890Z,69.30
2019-03-26T08:36:05.186Z,68.20
2019-03-26T08:38:34.463Z,67.20
2019-03-26T08:41:04.726Z,63.40
2019-03-26T08:43:34.017Z,58.30
2019-03-26T08:46:03.383Z,53.80
2019-03-26T08:48:32.663Z,51.50
2019-03-26T08:51:01.970Z,49.30
2019-03-26T08:53:31.249Z,46.80
2019-03-26T08:56:00.549Z,52.20
2019-03-26T08:58:29.826Z,56.80
2019-03-26T09:00:59.307Z,57.80
2019-03-26T09:03:28.583Z,63.50
2019-03-26T09:05:57.891Z,73.50
2019-03-26T09:08:27.183Z,86.10
2019-03-26T09:10:56.474Z,99.10
2019-03-26T09:13:25.828Z,99.90
2019-03-26T09:15:56.093Z,99.90
2019-03-26T09:18:25.374Z,99.90
2019-03-26T09:20:54.681Z,99.90
2019-03-26T09:23:23.958Z,99.90
2019-03-26T09:25:53.285Z,99.90
2019-03-26T09:28:22.526Z,99.90
2019-03-26T09:30:51.819Z,99.90
2019-03-26T09:33:21.092Z,99.90
2019-03-26T09:35:50.393Z,99.90
2019-03-26T09:38:19.658Z,99.90
2019-03-26T09:40:48.954Z,99.90
2019-03-26T09:43:18.224Z,99.90
2019-03-26T09:45:47.599Z,99.90
2019-03-26T09:48:16.879Z,99.90
2019-03-26T09:50:46.176Z,99.90
2019-03-26T09:53:15.454Z,99.90
2019-03-26T09:55:44.851Z,99.90
2019-03-26T09:58:15.103Z,99.90
2019-03-26T10:00:44.479Z,99.90
2019-03-26T10:03:13.855Z,99.90
2019-03-26T10:05:43.206Z,99.90
2019-03-26T10:08:12.579Z,99.90
2019-03-26T10:10:41.854Z,99.90
2019-03-26T10:13:11.223Z,99.90
2019-03-26T10:15:40.501Z,99.90
2019-03-26T10:18:09.793Z,99.90
2019-03-26T10:20:39.070Z,99.90
2019-03-26T10:23:08.443Z,99.90
2019-03-26T10:25:37.722Z,99.90
2019-03-26T10:28:07.028Z,99.90
2019-03-26T10:30:38.710Z,99.90
2019-03-26T10:33:08.758Z,99.90
2019-03-26T10:35:38.040Z,99.90
2019-03-26T10:38:07.474Z,99.90
2019-03-26T10:40:38.516Z,99.90
2019-03-26T10:43:08.036Z,99.90
2019-03-26T10:45:37.337Z,99.90
2019-03-26T10:48:06.742Z,99.90
2019-03-26T10:50:36.077Z,99.90
2019-03-26T10:53:05.358Z,99.90
2019-03-26T10:55:34.630Z,99.90
2019-03-26T10:58:04.006Z,99.90
2019-03-26T11:00:33.314Z,99.90
2019-03-26T11:03:02.603Z,99.90
2019-03-26T11:05:31.917Z,99.90
2019-03-26T11:08:01.226Z,99.90
2019-03-26T11:10:31.476Z,99.90
2019-03-26T11:13:01.003Z,99.90
2019-03-26T11:15:30.289Z,99.90
2019-03-26T11:17:59.661Z,99.90
2019-03-26T11:20:28.956Z,99.90
2019-03-26T11:22:58.263Z,99.90
2019-03-26T11:25:27.542Z,99.90
2019-03-26T11:27:56.850Z,99.90
2019-03-26T11:30:26.173Z,99.90
2019-03-26T11:32:55.498Z,99.90
2019-03-26T11:35:24.782Z,99.90
2019-03-26T11:37:54.087Z,99.90
2019-03-26T11:40:23.370Z,99.90
2019-03-26T11:42:52.675Z,99.90
2019-03-26T11:45:22.035Z,99.90
2019-03-26T11:47:51.343Z,99.90
2019-03-26T11:50:20.691Z,99.90
2019-03-26T11:52:50.004Z,99.90
2019-03-26T11:55:21.713Z,99.90
2019-03-26T11:57:50.322Z,99.90
2019-03-26T12:00:21.897Z,99.90
2019-03-26T12:02:51.198Z,99.90
2019-03-26T12:05:20.495Z,99.90
2019-03-26T12:07:49.798Z,99.90
2019-03-26T12:10:19.082Z,99.90
2019-03-26T12:12:48.392Z,99.90
2019-03-26T12:15:17.880Z,99.90
2019-03-26T12:17:47.167Z,96.70
2019-03-26T12:20:16.540Z,97.50
2019-03-26T12:22:45.823Z,99.30
2019-03-26T12:25:15.274Z,99.00
2019-03-26T12:27:44.558Z,99.90
2019-03-26T12:30:15.770Z,99.90
2019-03-26T12:32:45.150Z,99.90
2019-03-26T12:35:19.942Z,99.90
2019-03-26T12:37:49.251Z,99.90
2019-03-26T12:40:18.535Z,99.90
2019-03-26T12:42:47.875Z,98.90
2019-03-26T12:45:17.163Z,99.60
2019-03-26T12:47:46.445Z,95.80
2019-03-26T12:50:15.893Z,92.30
2019-03-26T12:52:45.183Z,94.60
2019-03-26T12:55:14.484Z,96.40
2019-03-26T12:57:43.895Z,97.80
2019-03-26T13:00:13.419Z,99.90
2019-03-26T13:02:42.719Z,99.90
2019-03-26T13:05:12.103Z,99.90
2019-03-26T13:07:41.393Z,99.90
2019-03-26T13:10:14.154Z,99.90
2019-03-26T13:12:42.006Z,98.60
2019-03-26T13:15:11.315Z,98.80
2019-03-26T13:17:40.602Z,98.20
2019-03-26T13:20:10.446Z,97.90
2019-03-26T13:22:39.732Z,99.10
2019-03-26T13:25:09.282Z,98.20
2019-03-26T13:27:38.562Z,98.30
2019-03-26T13:30:08.315Z,98.00
2019-03-26T13:32:37.623Z,94.70
2019-03-26T13:35:07.253Z,95.80
2019-03-26T13:37:36.899Z,94.10
2019-03-26T13:40:06.531Z,95.00
2019-03-26T13:42:35.814Z,94.10
2019-03-26T13:45:08.470Z,94.80
2019-03-26T13:47:37.990Z,95.00
2019-03-26T13:50:07.806Z,94.90
2019-03-26T13:52:37.093Z,94.40
2019-03-26T13:55:08.028Z,94.80
2019-03-26T13:57:37.339Z,95.80
2019-03-26T14:00:10.338Z,95.80
2019-03-26T14:02:47.448Z,96.50
2019-03-26T14:05:26.663Z,95.50
2019-03-26T14:07:56.014Z,97.30
2019-03-26T14:10:39.828Z,98.50
2019-03-26T14:12:57.309Z,98.60
2019-03-26T14:15:26.610Z,99.10
2019-03-26T14:17:55.895Z,99.90
2019-03-26T14:20:25.262Z,99.20
2019-03-26T14:22:54.543Z,98.40
2019-03-26T14:25:23.854Z,99.20
2019-03-26T14:27:53.210Z,99.90
2019-03-26T14:30:31.324Z,99.90
2019-03-26T14:33:00.598Z,99.90
2019-03-26T14:35:29.976Z,97.30
2019-03-26T14:37:59.246Z,92.40
2019-03-26T14:40:28.552Z,96.10
2019-03-26T14:42:57.831Z,94.90
2019-03-26T14:45:27.136Z,93.30
2019-03-26T14:47:56.406Z,92.30
2019-03-26T14:50:25.719Z,93.10
2019-03-26T14:52:54.995Z,93.40
2019-03-26T14:55:24.303Z,91.90
2019-03-26T14:57:53.654Z,90.80
2019-03-26T15:00:22.947Z,92.50
2019-03-26T15:02:52.295Z,93.60
2019-03-26T15:05:21.596Z,93.70
2019-03-26T15:07:50.875Z,91.50
2019-03-26T15:10:23.297Z,90.70
2019-03-26T15:12:51.218Z,87.00
2019-03-26T15:15:20.531Z,87.40
2019-03-26T15:17:49.807Z,90.30
2019-03-26T15:20:19.174Z,91.50
2019-03-26T15:22:48.463Z,90.20
2019-03-26T15:25:17.767Z,90.70
2019-03-26T15:27:47.120Z,90.40
2019-03-26T15:30:16.868Z,91.90
2019-03-26T15:32:46.150Z,94.40
2019-03-26T15:35:15.478Z,94.50
2019-03-26T15:37:44.758Z,93.00
2019-03-26T15:40:14.714Z,91.10
2019-03-26T15:42:44.015Z,92.60
2019-03-26T15:45:13.660Z,93.90
2019-03-26T15:47:42.975Z,95.00
2019-03-26T15:50:14.251Z,98.00
2019-03-26T15:52:43.558Z,99.90
2019-03-26T15:55:12.926Z,98.80
2019-03-26T15:57:42.216Z,99.00
2019-03-26T16:00:11.587Z,98.90
2019-03-26T16:02:40.911Z,99.90
2019-03-26T16:05:10.432Z,96.90
2019-03-26T16:07:39.715Z,97.50
2019-03-26T16:10:09.249Z,95.30
2019-03-26T16:12:41.239Z,96.30
2019-03-26T16:15:09.603Z,97.20
2019-03-26T16:17:38.883Z,95.80
2019-03-26T16:20:08.423Z,95.60
2019-03-26T16:22:37.836Z,96.00
2019-03-26T16:25:07.576Z,95.30
2019-03-26T16:27:36.874Z,95.20
2019-03-26T16:30:07.638Z,96.90
2019-03-26T16:32:37.039Z,94.50
2019-03-26T16:35:12.166Z,96.50
2019-03-26T16:37:41.444Z,97.50
2019-03-26T16:40:11.854Z,98.10
2019-03-26T16:42:41.147Z,97.40
2019-03-26T16:45:10.589Z,97.40
2019-03-26T16:47:39.862Z,97.40
2019-03-26T16:50:12.055Z,97.50
2019-03-26T16:52:41.678Z,96.70
2019-03-26T16:55:15.380Z,96.50
2019-03-26T16:57:44.670Z,99.30
2019-03-26T17:00:14.582Z,98.20
2019-03-26T17:02:43.859Z,99.90
2019-03-26T17:05:16.242Z,98.40
2019-03-26T17:07:45.561Z,98.80
2019-03-26T17:10:15.833Z,99.10
2019-03-26T17:12:45.231Z,99.70
2019-03-26T17:15:14.683Z,99.90
2019-03-26T17:17:43.962Z,99.90
2019-03-26T17:20:13.412Z,99.90
2019-03-26T17:22:42.682Z,99.90
2019-03-26T17:25:12.264Z,99.90
2019-03-26T17:27:41.710Z,99.90
2019-03-26T17:30:11.330Z,99.90
2019-03-26T17:32:40.724Z,99.90
2019-03-26T17:35:10.263Z,99.90
2019-03-26T17:37:39.533Z,99.90
2019-03-26T17:40:08.966Z,99.90
2019-03-26T17:42:38.283Z,99.90
2019-03-26T17:45:08.840Z,99.90
2019-03-26T17:47:38.110Z,99.90
2019-03-26T17:50:08.051Z,99.90
2019-03-26T17:52:37.402Z,99.90
2019-03-26T17:55:07.635Z,99.90
2019-03-26T17:57:36.974Z,99.90
2019-03-26T18:00:09.337Z,99.90
2019-03-26T18:02:38.914Z,99.90
2019-03-26T18:05:12.395Z,99.90
2019-03-26T18:07:41.663Z,99.90
2019-03-26T18:10:11.002Z,99.90
2019-03-26T18:12:40.419Z,99.90
2019-03-26T18:15:09.791Z,99.90
2019-03-26T18:17:39.059Z,99.90
2019-03-26T18:20:08.443Z,99.90
2019-03-26T18:22:37.722Z,99.90
2019-03-26T18:25:07.096Z,99.90
2019-03-26T18:27:36.441Z,99.90
2019-03-26T18:30:05.879Z,99.90
2019-03-26T18:32:37.967Z,99.90
2019-03-26T18:35:07.491Z,99.90
2019-03-26T18:37:37.734Z,99.90
2019-03-26T18:40:08.174Z,99.90
2019-03-26T18:42:43.999Z,99.90
2019-03-26T18:45:08.457Z,99.90
2019-03-26T18:47:37.726Z,99.90
2019-03-26T18:50:07.464Z,99.90
2019-03-26T18:52:36.745Z,99.90
2019-03-26T18:55:06.777Z,99.90
2019-03-26T18:57:36.167Z,99.90
2019-03-26T19:00:09.458Z,99.90
2019-03-26T19:02:38.991Z,99.90
2019-03-26T19:05:09.228Z,99.90
2019-03-26T19:07:38.508Z,99.90
2019-03-26T19:10:13.394Z,99.90
2019-03-26T19:12:42.664Z,99.90
2019-03-26T19:15:12.927Z,99.90
2019-03-26T19:17:42.197Z,99.90
2019-03-26T19:20:11.579Z,99.90
2019-03-26T19:22:40.868Z,99.90
2019-03-26T19:25:10.158Z,99.90
2019-03-26T19:27:39.441Z,99.90
2019-03-26T19:30:08.990Z,99.90
2019-03-26T19:32:38.507Z,99.90
2019-03-26T19:35:07.954Z,99.90
2019-03-26T19:37:37.307Z,99.90
2019-03-26T19:40:07.439Z,99.90
2019-03-26T19:42:36.712Z,99.90
2019-03-26T19:47:44.723Z,99.90
2019-03-26T19:50:14.194Z,99.90
2019-03-26T19:52:43.471Z,99.90
2019-03-26T19:55:12.848Z,99.90
2019-03-26T19:57:42.295Z,99.90
2019-03-26T20:00:14.702Z,99.90
2019-03-26T20:02:44.054Z,99.90
2019-03-26T20:05:13.736Z,99.90
2019-03-26T20:07:43.268Z,99.90
2019-03-26T20:10:13.467Z,99.90
2019-03-26T20:12:43.082Z,99.90
2019-03-26T20:15:12.919Z,99.90
2019-03-26T20:17:42.197Z,99.90
2019-03-26T20:20:12.471Z,99.90
2019-03-26T20:22:41.742Z,99.90
2019-03-26T20:25:11.474Z,99.90
2019-03-26T20:27:40.861Z,99.90
2019-03-26T20:30:10.767Z,99.90
2019-03-26T20:32:40.067Z,99.90
2019-03-26T20:35:10.170Z,99.90
2019-03-26T20:37:39.738Z,99.90
2019-03-26T20:40:12.351Z,99.90
2019-03-26T20:42:41.734Z,99.90
2019-03-26T20:45:14.248Z,99.90
2019-03-26T20:47:42.620Z,99.90
2019-03-26T20:50:12.438Z,99.90
2019-03-26T20:52:42.908Z,99.90
2019-03-26T20:55:13.186Z,99.90
2019-03-26T20:57:43.102Z,99.90
2019-03-26T21:00:13.519Z,99.90
2019-03-26T21:02:43.297Z,99.90
2019-03-26T21:05:12.742Z,99.90
2019-03-26T21:07:42.216Z,99.90
2019-03-26T21:10:11.571Z,99.90
2019-03-26T21:12:41.426Z,99.90
2019-03-26T21:15:10.851Z,99.90
2019-03-26T21:17:40.153Z,99.90
2019-03-26T21:20:09.963Z,99.90
2019-03-26T21:22:39.502Z,99.90
2019-03-26T21:25:09.219Z,99.90
2019-03-26T21:27:38.590Z,99.90
2019-03-26T21:30:15.324Z,99.90
2019-03-26T21:32:42.139Z,99.90
2019-03-26T21:35:11.767Z,99.90
2019-03-26T21:37:41.053Z,99.90
2019-03-26T21:40:11.741Z,99.90
2019-03-26T21:42:41.032Z,99.90
2019-03-26T21:45:12.213Z,99.90
2019-03-26T21:47:41.510Z,99.90
2019-03-26T21:50:11.019Z,99.90
2019-03-26T21:52:40.323Z,99.90
2019-03-26T21:55:13.182Z,99.90
2019-03-26T21:57:41.126Z,99.90
2019-03-26T22:00:11.041Z,99.90
2019-03-26T22:02:41.511Z,99.90
2019-03-26T22:05:11.512Z,99.90
2019-03-26T22:07:40.794Z,99.90
2019-03-26T22:10:11.340Z,99.90
2019-03-26T22:12:41.210Z,99.90
2019-03-26T22:15:11.333Z,99.90
2019-03-26T22:17:40.645Z,99.90
2019-03-26T22:20:10.178Z,99.90
2019-03-26T22:22:39.462Z,99.90
2019-03-26T22:25:09.078Z,99.90
2019-03-26T22:27:38.394Z,99.90
2019-03-26T22:30:10.007Z,99.90
2019-03-26T22:32:39.300Z,99.90
2019-03-26T22:35:09.718Z,99.90
2019-03-26T22:37:39.077Z,99.90
2019-03-26T22:40:08.791Z,99.90
2019-03-26T22:42:38.090Z,99.90
2019-03-26T22:45:08.703Z,99.90
2019-03-26T22:47:39.139Z,99.90
2019-03-26T22:50:09.256Z,99.90
2019-03-26T22:52:46.722Z,99.90
2019-03-26T22:55:15.993Z,99.90
2019-03-26T22:57:45.290Z,99.90
2019-03-26T23:00:19.430Z,99.90
2019-03-26T23:02:50.345Z,99.90
2019-03-26T23:05:19.687Z,99.90
2019-03-26T23:07:48.986Z,99.90
2019-03-26T23:10:19.978Z,99.90
2019-03-26T23:12:49.271Z,99.90
2019-03-26T23:15:24.243Z,99.90
2019-03-26T23:17:53.611Z,99.90
2019-03-26T23:20:24.060Z,99.90
2019-03-26T23:22:53.463Z,99.90
2019-03-26T23:25:22.735Z,99.90
2019-03-26T23:27:52.106Z,99.90
2019-03-26T23:30:22.394Z,99.90
2019-03-26T23:32:52.663Z,99.90
2019-03-26T23:35:22.019Z,99.90
2019-03-26T23:37:51.328Z,99.90
2019-03-26T23:40:20.610Z,99.90
2019-03-26T23:42:49.914Z,99.90
2019-03-26T23:45:19.258Z,99.90
2019-03-26T23:47:48.555Z,99.90
2019-03-26T23:50:17.830Z,99.90
2019-03-26T23:52:47.129Z,99.90
2019-03-26T23:55:16.427Z,99.90
2019-03-26T23:57:45.910Z,99.90
